Waters Bluff, Texas
Current Conditions -  °F | °C
As of 12:53 PM on Thursday 23 Oct 2014 (Local Time) from KTYR Reporting Station
Clear Clear  
Wind Chill: 71°   Ceiling: Unl
Heat Index: 71°   Visibility: 10mi
Dew Point: 51°   Wind: 5mph
Humidity: 49%   Direction: NA
Pressure: 30.16"   Gusts: NA
Location:  32.4644°N, 95.1125°W
Report Text: KTYR 231753Z VRB04KT 10SM CLR 22/11 A3016 RMK AO2 SLP206 60000 T02170106 10217 20150 58005
Loading
Personal Weather Stations






























Interactive Weather Map
Tropical Storm Tracking
New forecast layout! Learn more

10-Day Weather Forecast

Advertisements
Track Severe Weather on mobile